Terminal Aerodrome Forecast
Issued by NWS

Home | Current Version | Previous Version | Text Only | Print | Product List | Glossary On
Versions: 1 2 3 4 5 6 7 8 9 10 11 12 13
000
FTUS43 KGRB 241130
TAFAUW
TAF
KAUW 241130Z 2412/2512 35007KT P6SM SCT100
     FM242100 35010G16KT P6SM VCSH BKN060
     FM250100 01005KT P6SM SKC=

USA.gov is the U.S. government's official web portal to all federal, state and local government web resources and services.